createdAt,value
2022-11-21T00:00:59.321Z,96.06
2022-11-21T00:03:25.947Z,96.20
2022-11-21T00:05:54.284Z,96.92
2022-11-21T00:08:21.952Z,98.35
2022-11-21T00:10:48.850Z,97.64
2022-11-21T00:13:17.847Z,97.55
2022-11-21T00:15:44.438Z,97.50
2022-11-21T00:18:14.154Z,96.63
2022-11-21T00:20:41.585Z,96.71
2022-11-21T00:23:08.307Z,96.99
2022-11-21T00:25:34.867Z,97.05
2022-11-21T00:28:01.261Z,96.97
2022-11-21T00:30:27.805Z,96.60
2022-11-21T00:32:54.192Z,96.72
2022-11-21T00:35:20.621Z,96.28
2022-11-21T00:37:48.606Z,96.86
2022-11-21T00:40:15.238Z,96.50
2022-11-21T00:42:41.771Z,96.03
2022-11-21T00:45:08.509Z,96.36
2022-11-21T00:47:34.940Z,96.11
2022-11-21T00:50:01.436Z,96.76
2022-11-21T00:52:27.809Z,96.32
2022-11-21T00:54:54.199Z,96.61
2022-11-21T00:57:20.582Z,96.18
2022-11-21T00:59:46.999Z,96.38
2022-11-21T01:02:13.885Z,95.77
2022-11-21T01:04:40.464Z,96.89
2022-11-21T01:07:06.894Z,96.14
2022-11-21T01:09:33.302Z,96.85
2022-11-21T01:11:59.694Z,96.70
2022-11-21T01:14:26.500Z,97.83
2022-11-21T01:16:53.143Z,97.28
2022-11-21T01:19:19.526Z,97.61
2022-11-21T01:21:45.925Z,96.70
2022-11-21T01:24:12.390Z,97.79
2022-11-21T01:26:39.253Z,97.65
2022-11-21T01:29:06.801Z,98.17
2022-11-21T01:31:33.216Z,98.51
2022-11-21T01:34:00.586Z,97.70
2022-11-21T01:36:32.055Z,98.06
2022-11-21T01:39:00.917Z,98.04
2022-11-21T01:41:36.233Z,98.74
2022-11-21T01:44:10.124Z,98.39
2022-11-21T01:46:36.526Z,98.58
2022-11-21T01:49:06.731Z,98.25
2022-11-21T01:51:55.313Z,98.88
2022-11-21T01:54:44.744Z,97.84
2022-11-21T01:57:19.047Z,98.60
2022-11-21T02:00:00.468Z,97.28
2022-11-21T02:02:33.823Z,97.79
2022-11-21T02:05:01.814Z,97.74
2022-11-21T02:07:33.516Z,97.13
2022-11-21T02:10:03.218Z,97.51
2022-11-21T02:12:41.344Z,99.00
2022-11-21T02:15:08.258Z,98.95
2022-11-21T02:17:34.670Z,99.70
2022-11-21T02:20:13.832Z,100.00
2022-11-21T02:23:14.729Z,100.00
2022-11-21T02:25:43.044Z,100.00
2022-11-21T02:28:14.860Z,100.00
2022-11-21T02:30:42.421Z,100.00
2022-11-21T02:33:10.105Z,100.00
2022-11-21T02:35:36.895Z,100.00
2022-11-21T02:38:25.193Z,100.00
2022-11-21T02:40:58.413Z,100.00
2022-11-21T02:43:29.694Z,100.00
2022-11-21T02:45:56.274Z,99.66
2022-11-21T02:48:22.665Z,99.22
2022-11-21T02:50:49.045Z,99.29
2022-11-21T02:53:18.272Z,99.25
2022-11-21T02:55:45.127Z,99.07
2022-11-21T02:58:12.362Z,98.99
2022-11-21T03:00:42.086Z,98.91
2022-11-21T03:03:08.927Z,99.42
2022-11-21T03:05:35.735Z,99.70
2022-11-21T03:08:02.281Z,100.00
2022-11-21T03:10:28.662Z,99.68
2022-11-21T03:13:01.242Z,99.57
2022-11-21T03:15:30.441Z,99.60
2022-11-21T03:17:57.006Z,99.45
2022-11-21T03:20:23.535Z,98.86
2022-11-21T03:22:50.420Z,98.92
2022-11-21T03:25:17.527Z,99.02
2022-11-21T03:27:43.951Z,99.39
2022-11-21T03:30:11.341Z,99.63
2022-11-21T03:32:37.745Z,99.29
2022-11-21T03:35:04.777Z,99.43
2022-11-21T03:37:31.162Z,99.51
2022-11-21T03:39:57.538Z,99.44
2022-11-21T03:42:23.940Z,99.24
2022-11-21T03:44:50.306Z,98.96
2022-11-21T03:47:17.018Z,99.14
2022-11-21T03:49:43.388Z,98.68
2022-11-21T03:52:09.777Z,99.01
2022-11-21T03:54:36.154Z,98.59
2022-11-21T03:57:02.525Z,99.15
2022-11-21T03:59:28.922Z,99.42
2022-11-21T04:01:55.332Z,98.85
2022-11-21T04:04:21.787Z,99.10
2022-11-21T04:06:48.169Z,98.58
2022-11-21T04:09:14.548Z,98.30
2022-11-21T04:11:40.956Z,98.69
2022-11-21T04:14:07.330Z,98.10
2022-11-21T04:16:33.740Z,98.22
2022-11-21T04:19:00.121Z,98.06
2022-11-21T04:21:26.551Z,98.12
2022-11-21T04:23:52.955Z,98.78
2022-11-21T04:26:19.379Z,98.27
2022-11-21T04:28:45.749Z,97.87
2022-11-21T04:31:12.262Z,98.59
2022-11-21T04:33:39.375Z,98.69
2022-11-21T04:36:07.586Z,99.10
2022-11-21T04:38:34.004Z,98.13
2022-11-21T04:41:00.516Z,98.62
2022-11-21T04:43:26.890Z,98.79
2022-11-21T04:45:53.310Z,99.96
2022-11-21T04:48:19.843Z,100.00
2022-11-21T04:50:46.839Z,100.00
2022-11-21T04:53:13.229Z,100.00
2022-11-21T04:55:39.646Z,100.00
2022-11-21T04:58:06.028Z,99.84
2022-11-21T05:00:32.425Z,100.00
2022-11-21T05:03:06.308Z,100.00
2022-11-21T05:05:33.222Z,99.99
2022-11-21T05:07:59.662Z,100.00
2022-11-21T05:10:26.160Z,100.00
2022-11-21T05:13:18.807Z,100.00
2022-11-21T05:15:45.672Z,100.00
2022-11-21T05:18:12.241Z,100.00
2022-11-21T05:20:38.957Z,100.00
2022-11-21T05:23:05.377Z,100.00
2022-11-21T05:25:31.765Z,100.00
2022-11-21T05:27:58.289Z,100.00
2022-11-21T05:30:24.751Z,100.00
2022-11-21T05:32:51.170Z,100.00
2022-11-21T05:35:17.558Z,100.00
2022-11-21T05:37:43.942Z,100.00
2022-11-21T05:40:10.964Z,100.00
2022-11-21T05:43:01.233Z,100.00
2022-11-21T05:45:27.626Z,100.00
2022-11-21T05:47:54.072Z,100.00
2022-11-21T05:50:20.464Z,100.00
2022-11-21T05:52:46.865Z,100.00
2022-11-21T05:55:13.314Z,100.00
2022-11-21T05:57:39.718Z,100.00
2022-11-21T06:00:06.686Z,100.00
2022-11-21T06:02:51.935Z,100.00
2022-11-21T06:05:18.358Z,100.00
2022-11-21T06:07:45.899Z,100.00
2022-11-21T06:10:12.308Z,100.00
2022-11-21T06:12:38.706Z,100.00
2022-11-21T06:15:05.309Z,100.00
2022-11-21T06:17:32.436Z,100.00
2022-11-21T06:19:58.823Z,100.00
2022-11-21T06:22:25.260Z,100.00
2022-11-21T06:24:51.643Z,100.00
2022-11-21T06:27:18.050Z,100.00
2022-11-21T06:29:44.451Z,100.00
2022-11-21T06:32:11.094Z,100.00
2022-11-21T06:34:37.845Z,100.00
2022-11-21T06:37:04.248Z,100.00
2022-11-21T06:39:30.694Z,100.00
2022-11-21T06:41:57.143Z,100.00
2022-11-21T06:44:23.526Z,100.00
2022-11-21T06:46:51.668Z,100.00
2022-11-21T06:49:18.394Z,100.00
2022-11-21T06:51:44.814Z,100.00
2022-11-21T06:54:15.207Z,100.00
2022-11-21T06:56:43.665Z,100.00
2022-11-21T06:59:10.078Z,100.00
2022-11-21T07:01:37.072Z,100.00
2022-11-21T07:04:03.667Z,100.00
2022-11-21T07:06:30.068Z,100.00
2022-11-21T07:09:25.243Z,100.00
2022-11-21T07:11:43.089Z,100.00
2022-11-21T07:14:09.774Z,100.00
2022-11-21T07:16:36.329Z,100.00
2022-11-21T07:19:02.928Z,100.00
2022-11-21T07:21:29.432Z,100.00
2022-11-21T07:23:55.831Z,100.00
2022-11-21T07:26:22.209Z,100.00
2022-11-21T07:28:48.891Z,100.00
2022-11-21T07:31:15.279Z,100.00
2022-11-21T07:33:43.503Z,100.00
2022-11-21T07:36:10.804Z,100.00
2022-11-21T07:38:37.210Z,100.00
2022-11-21T07:41:03.606Z,100.00
2022-11-21T07:43:29.993Z,100.00
2022-11-21T07:45:56.575Z,100.00
2022-11-21T07:48:22.997Z,100.00
2022-11-21T07:50:49.390Z,100.00
2022-11-21T07:53:15.794Z,100.00
2022-11-21T07:55:42.564Z,100.00
2022-11-21T07:58:11.728Z,100.00
2022-11-21T08:00:39.990Z,100.00
2022-11-21T08:03:07.186Z,100.00
2022-11-21T08:05:37.916Z,100.00
2022-11-21T08:08:08.958Z,100.00
2022-11-21T08:10:42.591Z,100.00
2022-11-21T08:13:09.315Z,100.00
2022-11-21T08:15:36.597Z,100.00
2022-11-21T08:18:09.647Z,100.00
2022-11-21T08:20:36.330Z,100.00
2022-11-21T08:23:03.002Z,100.00
2022-11-21T08:25:29.405Z,100.00
2022-11-21T08:27:59.567Z,100.00
2022-11-21T08:30:26.120Z,100.00
2022-11-21T08:32:52.636Z,100.00
2022-11-21T08:35:19.164Z,100.00
2022-11-21T08:37:45.579Z,100.00
2022-11-21T08:40:11.974Z,100.00
2022-11-21T08:42:38.382Z,100.00
2022-11-21T08:45:05.957Z,100.00
2022-11-21T08:47:33.763Z,100.00
2022-11-21T08:50:04.328Z,100.00
2022-11-21T08:52:33.937Z,100.00
2022-11-21T08:55:00.322Z,100.00
2022-11-21T08:57:26.755Z,100.00
2022-11-21T08:59:53.134Z,100.00
2022-11-21T09:02:19.534Z,100.00
2022-11-21T09:04:45.913Z,100.00
2022-11-21T09:07:12.349Z,100.00
2022-11-21T09:09:38.765Z,100.00
2022-11-21T09:12:05.465Z,100.00
2022-11-21T09:14:50.358Z,100.00
2022-11-21T09:17:35.422Z,100.00
2022-11-21T09:20:01.964Z,100.00
2022-11-21T09:22:28.408Z,100.00
2022-11-21T09:24:54.851Z,100.00
2022-11-21T09:27:21.294Z,100.00
2022-11-21T09:29:53.685Z,100.00
2022-11-21T09:32:20.568Z,100.00
2022-11-21T09:34:46.960Z,100.00
2022-11-21T09:37:13.333Z,100.00
2022-11-21T09:39:39.708Z,100.00
2022-11-21T09:42:33.445Z,100.00
2022-11-21T09:45:44.660Z,100.00
2022-11-21T09:48:20.182Z,100.00
2022-11-21T09:50:56.920Z,100.00
2022-11-21T09:53:53.005Z,100.00
2022-11-21T09:56:23.310Z,100.00
2022-11-21T09:59:22.941Z,100.00
2022-11-21T10:01:49.361Z,100.00
2022-11-21T10:04:15.828Z,100.00
2022-11-21T10:06:53.769Z,100.00
2022-11-21T10:09:34.650Z,100.00
2022-11-21T10:12:25.216Z,100.00
2022-11-21T10:15:33.633Z,100.00
2022-11-21T10:18:23.209Z,100.00
2022-11-21T10:21:13.835Z,100.00
2022-11-21T10:24:05.109Z,100.00
2022-11-21T10:26:51.848Z,100.00
2022-11-21T10:29:25.090Z,100.00
2022-11-21T10:31:55.841Z,100.00
2022-11-21T10:34:27.153Z,100.00
2022-11-21T10:36:58.890Z,100.00
2022-11-21T10:39:48.133Z,100.00
2022-11-21T10:42:36.126Z,100.00
2022-11-21T10:45:19.890Z,100.00
2022-11-21T10:47:48.651Z,100.00
2022-11-21T10:50:42.811Z,100.00
2022-11-21T10:53:33.844Z,100.00
2022-11-21T10:56:08.562Z,100.00
2022-11-21T10:58:41.843Z,100.00
2022-11-21T11:01:19.651Z,100.00
2022-11-21T11:04:06.907Z,100.00
2022-11-21T11:06:32.937Z,100.00
2022-11-21T11:08:59.505Z,100.00
2022-11-21T11:11:26.169Z,100.00
2022-11-21T11:14:11.787Z,100.00
2022-11-21T11:16:44.120Z,100.00
2022-11-21T11:19:13.574Z,100.00
2022-11-21T11:21:40.781Z,100.00
2022-11-21T11:24:10.226Z,100.00
2022-11-21T11:26:49.051Z,100.00
2022-11-21T11:29:30.739Z,100.00
2022-11-21T11:32:03.801Z,100.00
2022-11-21T11:34:37.207Z,100.00
2022-11-21T11:37:12.483Z,100.00
2022-11-21T11:39:40.889Z,100.00
2022-11-21T11:42:45.153Z,100.00
2022-11-21T11:45:30.332Z,100.00
2022-11-21T11:48:01.985Z,100.00
2022-11-21T11:50:45.449Z,100.00
2022-11-21T11:53:18.311Z,100.00
2022-11-21T11:56:12.571Z,100.00
2022-11-21T11:58:50.529Z,100.00
2022-11-21T12:01:32.218Z,100.00
2022-11-21T12:04:12.325Z,100.00
2022-11-21T12:10:17.962Z,100.00
2022-11-21T12:13:02.593Z,100.00
2022-11-21T12:15:51.168Z,100.00
2022-11-21T12:18:20.792Z,100.00
2022-11-21T12:21:14.384Z,100.00
2022-11-21T12:23:58.164Z,100.00
2022-11-21T12:26:53.806Z,100.00
2022-11-21T12:29:47.112Z,100.00
2022-11-21T12:32:43.624Z,100.00
2022-11-21T12:36:16.733Z,100.00
2022-11-21T12:38:57.862Z,100.00
2022-11-21T12:41:53.982Z,100.00
2022-11-21T12:44:53.862Z,100.00
2022-11-21T12:47:26.214Z,100.00
2022-11-21T12:50:37.012Z,100.00
2022-11-21T12:53:45.001Z,100.00
2022-11-21T12:56:25.961Z,100.00
2022-11-21T12:58:55.998Z,100.00
2022-11-21T13:01:42.279Z,100.00
2022-11-21T13:04:15.425Z,100.00
2022-11-21T13:06:44.549Z,99.46
2022-11-21T13:09:18.900Z,98.93
2022-11-21T13:12:18.241Z,99.33
2022-11-21T13:14:52.354Z,99.64
2022-11-21T13:17:25.982Z,99.66
2022-11-21T13:20:02.107Z,99.50
2022-11-21T13:22:37.318Z,99.39
2022-11-21T13:25:03.735Z,98.03
2022-11-21T13:27:38.949Z,98.05
2022-11-21T13:30:08.948Z,98.42
2022-11-21T13:32:40.269Z,98.85
2022-11-21T13:35:19.110Z,98.22
2022-11-21T13:38:10.183Z,98.61
2022-11-21T13:40:39.699Z,98.36
2022-11-21T13:43:31.940Z,98.45
2022-11-21T13:45:58.418Z,97.84
2022-11-21T13:48:49.778Z,98.07
2022-11-21T13:51:24.998Z,97.61
2022-11-21T13:54:29.888Z,97.62
2022-11-21T13:57:24.980Z,98.82
2022-11-21T13:59:54.358Z,98.37
2022-11-21T14:02:48.342Z,97.92
2022-11-21T14:05:34.407Z,97.60
2022-11-21T14:08:19.377Z,96.90
2022-11-21T14:10:47.250Z,97.16
2022-11-21T14:13:31.222Z,97.31
2022-11-21T14:16:08.535Z,96.92
2022-11-21T14:18:35.919Z,97.78
2022-11-21T14:21:04.205Z,97.65
2022-11-21T14:23:33.279Z,96.36
2022-11-21T14:26:03.491Z,96.69
2022-11-21T14:28:34.828Z,96.76
2022-11-21T14:31:03.668Z,97.23
2022-11-21T14:33:32.497Z,97.14
2022-11-21T14:36:06.256Z,97.10
2022-11-21T14:38:42.076Z,96.48
2022-11-21T14:41:26.655Z,96.42
2022-11-21T14:43:58.876Z,97.53
2022-11-21T14:46:27.091Z,96.88
2022-11-21T14:48:54.280Z,96.01
2022-11-21T14:51:23.165Z,96.08
2022-11-21T14:53:52.781Z,96.90
2022-11-21T14:56:32.777Z,96.95
2022-11-21T14:59:02.606Z,96.90
2022-11-21T15:01:31.466Z,96.67
2022-11-21T15:03:58.838Z,96.53
2022-11-21T15:06:26.564Z,96.37
2022-11-21T15:12:02.451Z,96.14
2022-11-21T15:14:44.510Z,96.51
2022-11-21T15:17:15.536Z,96.27
2022-11-21T15:19:43.174Z,96.68
2022-11-21T15:22:23.706Z,96.26
2022-11-21T15:24:50.178Z,96.00
2022-11-21T15:27:24.156Z,96.03
2022-11-21T15:30:01.711Z,96.84
2022-11-21T15:32:28.183Z,97.43
2022-11-21T15:34:54.626Z,97.31
2022-11-21T15:37:23.911Z,97.49
2022-11-21T15:39:51.435Z,97.49
2022-11-21T15:42:44.009Z,97.23
2022-11-21T15:45:20.334Z,97.02
2022-11-21T15:47:47.425Z,97.14
2022-11-21T15:50:14.742Z,97.95
2022-11-21T15:52:46.371Z,99.19
2022-11-21T15:55:18.650Z,99.19
2022-11-21T15:57:14.855Z,96.43
2022-11-21T15:57:45.057Z,99.91
2022-11-21T16:00:11.961Z,99.83
2022-11-21T16:02:38.354Z,99.51
2022-11-21T16:05:05.094Z,99.60
2022-11-21T16:07:31.597Z,99.35
2022-11-21T16:09:57.994Z,99.51
2022-11-21T16:12:24.365Z,100.00
2022-11-21T16:14:50.790Z,99.59
2022-11-21T16:17:17.184Z,99.38
2022-11-21T16:19:43.580Z,99.40
2022-11-21T16:22:09.954Z,100.00
2022-11-21T16:24:36.353Z,100.00
2022-11-21T16:27:02.882Z,99.97
2022-11-21T16:29:29.643Z,100.00
2022-11-21T16:31:56.367Z,100.00
2022-11-21T16:34:22.817Z,100.00
2022-11-21T16:36:50.460Z,100.00
2022-11-21T16:39:18.671Z,100.00
2022-11-21T16:41:46.611Z,100.00
2022-11-21T16:44:15.048Z,100.00
2022-11-21T16:46:43.329Z,100.00
2022-11-21T16:49:10.207Z,100.00
2022-11-21T16:51:36.682Z,100.00
2022-11-21T16:54:08.359Z,100.00
2022-11-21T16:56:35.402Z,100.00
2022-11-21T16:59:01.789Z,100.00
2022-11-21T17:01:28.701Z,100.00
2022-11-21T17:03:55.117Z,100.00
2022-11-21T17:06:24.446Z,100.00
2022-11-21T17:08:51.017Z,100.00
2022-11-21T17:11:20.419Z,100.00
2022-11-21T17:13:48.670Z,100.00
2022-11-21T17:16:17.563Z,99.95
2022-11-21T17:18:44.358Z,100.00
2022-11-21T17:21:13.214Z,100.00
2022-11-21T17:23:41.642Z,100.00
2022-11-21T17:26:10.338Z,100.00
2022-11-21T17:28:42.325Z,100.00
2022-11-21T17:31:13.915Z,100.00
2022-11-21T17:33:40.477Z,100.00
2022-11-21T17:36:11.032Z,100.00
2022-11-21T17:38:38.414Z,100.00
2022-11-21T17:41:06.964Z,100.00
2022-11-21T17:43:34.388Z,100.00
2022-11-21T17:46:07.913Z,100.00
2022-11-21T17:48:37.139Z,100.00
2022-11-21T17:51:06.282Z,100.00
2022-11-21T17:53:37.734Z,100.00
2022-11-21T17:56:06.531Z,100.00
2022-11-21T17:58:33.487Z,100.00
2022-11-21T18:01:02.332Z,100.00
2022-11-21T18:03:29.737Z,100.00
2022-11-21T18:06:16.506Z,100.00
2022-11-21T18:08:44.926Z,100.00
2022-11-21T18:11:13.212Z,100.00
2022-11-21T18:13:39.958Z,100.00
2022-11-21T18:16:17.792Z,100.00
2022-11-21T18:18:44.431Z,100.00
2022-11-21T18:21:16.412Z,100.00
2022-11-21T18:23:43.990Z,100.00
2022-11-21T18:26:16.040Z,100.00
2022-11-21T18:28:42.835Z,100.00
2022-11-21T18:31:11.761Z,100.00
2022-11-21T18:33:38.942Z,100.00
2022-11-21T18:36:07.368Z,100.00
2022-11-21T18:38:56.519Z,100.00
2022-11-21T18:41:27.857Z,100.00
2022-11-21T18:43:56.154Z,100.00
2022-11-21T18:46:24.360Z,100.00
2022-11-21T18:49:08.099Z,100.00
2022-11-21T18:51:35.809Z,100.00
2022-11-21T18:54:07.001Z,100.00
2022-11-21T18:56:34.341Z,100.00
2022-11-21T18:59:00.744Z,100.00
2022-11-21T19:01:29.245Z,100.00
2022-11-21T19:03:56.784Z,100.00
2022-11-21T19:06:25.458Z,100.00
2022-11-21T19:08:53.546Z,100.00
2022-11-21T19:11:21.658Z,100.00
2022-11-21T19:13:48.674Z,100.00
2022-11-21T19:16:18.329Z,100.00
2022-11-21T19:18:54.950Z,100.00
2022-11-21T19:21:31.434Z,100.00
2022-11-21T19:23:57.827Z,100.00
2022-11-21T19:26:24.259Z,100.00
2022-11-21T19:28:50.625Z,100.00
2022-11-21T19:31:18.321Z,100.00
2022-11-21T19:33:45.101Z,100.00
2022-11-21T19:36:17.494Z,100.00
2022-11-21T19:38:50.235Z,100.00
2022-11-21T19:41:22.561Z,100.00
2022-11-21T19:43:50.866Z,100.00
2022-11-21T19:46:22.438Z,100.00
2022-11-21T19:48:50.750Z,100.00
2022-11-21T19:51:18.253Z,100.00
2022-11-21T19:53:45.388Z,100.00
2022-11-21T19:56:14.594Z,100.00
2022-11-21T19:58:42.258Z,100.00
2022-11-21T20:01:14.375Z,100.00
2022-11-21T20:03:43.554Z,100.00
2022-11-21T20:06:46.242Z,100.00
2022-11-21T20:09:15.596Z,100.00
2022-11-21T20:11:43.763Z,100.00
2022-11-21T20:14:11.638Z,100.00
2022-11-21T20:16:42.722Z,100.00
2022-11-21T20:19:11.960Z,100.00
2022-11-21T20:21:38.759Z,100.00
2022-11-21T20:24:05.820Z,100.00
2022-11-21T20:26:33.274Z,100.00
2022-11-21T20:28:59.666Z,100.00
2022-11-21T20:31:30.128Z,100.00
2022-11-21T20:33:58.202Z,100.00
2022-11-21T20:36:25.882Z,100.00
2022-11-21T20:38:53.885Z,100.00
2022-11-21T20:41:22.401Z,100.00
2022-11-21T20:44:35.927Z,100.00
2022-11-21T20:46:39.215Z,100.00
2022-11-21T20:49:05.612Z,100.00
2022-11-21T20:53:06.317Z,100.00
2022-11-21T20:54:18.622Z,100.00
2022-11-21T20:56:46.106Z,100.00
2022-11-21T20:59:12.490Z,100.00
2022-11-21T21:01:39.257Z,100.00
2022-11-21T21:04:05.770Z,100.00
2022-11-21T21:06:32.272Z,100.00
2022-11-21T21:08:58.665Z,100.00
2022-11-21T21:11:50.265Z,100.00
2022-11-21T21:14:11.548Z,100.00
2022-11-21T21:16:37.973Z,100.00
2022-11-21T21:19:04.360Z,100.00
2022-11-21T21:21:30.844Z,100.00
2022-11-21T21:24:02.514Z,100.00
2022-11-21T21:26:34.485Z,100.00
2022-11-21T21:29:03.775Z,100.00
2022-11-21T21:31:30.664Z,100.00
2022-11-21T21:33:57.907Z,100.00
2022-11-21T21:36:25.897Z,100.00
2022-11-21T21:38:53.847Z,100.00
2022-11-21T21:41:21.624Z,100.00
2022-11-21T21:43:52.523Z,100.00
2022-11-21T21:46:20.907Z,100.00
2022-11-21T21:48:48.268Z,100.00
2022-11-21T21:51:20.172Z,100.00
2022-11-21T21:53:48.394Z,100.00
2022-11-21T21:56:16.578Z,100.00
2022-11-21T21:58:44.443Z,100.00
2022-11-21T22:01:13.462Z,100.00
2022-11-21T22:03:40.713Z,100.00
2022-11-21T22:06:15.366Z,100.00
2022-11-21T22:08:41.854Z,100.00
2022-11-21T22:11:10.624Z,100.00
2022-11-21T22:13:38.622Z,100.00
2022-11-21T22:16:06.370Z,100.00
2022-11-21T22:18:33.040Z,100.00
2022-11-21T22:20:59.860Z,100.00
2022-11-21T22:23:26.933Z,100.00
2022-11-21T22:25:57.857Z,100.00
2022-11-21T22:28:25.161Z,100.00
2022-11-21T22:30:58.644Z,100.00
2022-11-21T22:33:26.324Z,100.00
2022-11-21T22:35:58.338Z,100.00
2022-11-21T22:38:24.732Z,100.00
2022-11-21T22:40:51.160Z,100.00
2022-11-21T22:43:17.643Z,100.00
2022-11-21T22:45:45.346Z,100.00
2022-11-21T22:48:12.432Z,100.00
2022-11-21T22:50:43.467Z,100.00
2022-11-21T22:53:09.874Z,100.00
2022-11-21T22:55:36.257Z,100.00
2022-11-21T22:58:02.638Z,100.00
2022-11-21T23:00:29.024Z,100.00
2022-11-21T23:02:55.402Z,100.00
2022-11-21T23:05:21.788Z,100.00
2022-11-21T23:07:48.206Z,100.00
2022-11-21T23:10:14.725Z,100.00
2022-11-21T23:12:41.116Z,100.00
2022-11-21T23:15:07.828Z,100.00
2022-11-21T23:17:34.207Z,100.00
2022-11-21T23:20:00.582Z,100.00
2022-11-21T23:22:26.964Z,100.00
2022-11-21T23:24:53.336Z,100.00
2022-11-21T23:27:19.713Z,100.00
2022-11-21T23:29:46.085Z,100.00
2022-11-21T23:32:12.469Z,100.00
2022-11-21T23:34:39.023Z,100.00
2022-11-21T23:37:05.433Z,100.00
2022-11-21T23:39:32.188Z,100.00
2022-11-21T23:41:58.780Z,100.00
2022-11-21T23:44:25.259Z,100.00
2022-11-21T23:46:51.651Z,100.00
2022-11-21T23:49:18.041Z,100.00
2022-11-21T23:51:44.429Z,100.00
2022-11-21T23:54:10.842Z,100.00
2022-11-21T23:56:37.251Z,100.00
2022-11-21T23:59:03.644Z,100.00
